• Join FlightAware (Why Join?)
  • Login
  • US Flag 
07:19AM EDT


 

Airport Tracker/Info


-or-


 

Live Flight TrackerFlight Track Log ✈ N1897T ✈ 18-Jun-2013 ✈ KFMY - KFXE

Flight Track Log - Related Links

Times and Time Zones

All times are in EDT time to prevent confusion due to time zone crossing. See the N1897T flight status page for this flight to view local times or setup timezone preferences in your user account.

Time Position Orientation Groundspeed Altitude Reporting Facility
EDT Latitude Longitude Course Direction KTS MPH feet Rate Location/Type
11:25AM 26.6239 -81.5922 108° East 114 131 3,000  Level Miami Center
11:26AM 26.6144 -81.5594 108° East 101 116 3,000  Level Miami Center
11:27AM 26.6050 -81.5333 112° Southeast 89 102 3,000  Level Miami Center
11:28AM 26.5953 -81.5053 111° Southeast 89 102 3,100  Climbing Miami Center
11:29AM 26.5878 -81.4792 108° East 89 102 3,000 -60 Descending Miami Center
11:30AM 26.5803 -81.4511 107° East 89 102 3,000 -120 Level Miami Center
11:31AM 26.5689 -81.4158 110° East 95 109 2,800 -120 Descending Miami Center
11:32AM 26.5614 -81.3878 107° East 95 109 2,800  Level Miami Center
11:33AM 26.5497 -81.3594 115° Southeast 95 109 2,900 60 Climbing Miami Center
11:34AM 26.5422 -81.3314 107° East 90 104 3,000  Climbing Miami Center
11:35AM 26.5328 -81.3031 110° East 90 104 2,900  Descending Miami Center
11:36AM 26.5233 -81.2678 107° East 96 110 3,000  Climbing Miami Center
11:37AM 26.5161 -81.2375 105° East 96 110 3,000  Level Miami Center
11:38AM 26.5086 -81.2069 105° East 102 117 3,000 -60 Level Miami Center
11:39AM 26.4947 -81.1764 117° Southeast 102 117 2,900 -60 Descending Miami Center
11:40AM 26.4853 -81.1481 110° East 102 117 2,900  Level Miami Center
11:41AM 26.4778 -81.1200 107° East 102 117 3,000 -60 Climbing Miami Center
11:42AM 26.4681 -81.0894 110° East 102 117 2,800 -240 Descending Miami Center
11:43AM 26.4628 -81.0592 101° East 97 112 2,600  Descending Miami Center
11:44AM 26.4553 -81.0333 108° East 91 105 2,900 420 Climbing Miami Center
11:45AM 26.4456 -81.0053 111° Southeast 91 105 3,500 60 Climbing Miami Center
11:46AM 26.4358 -80.9769 111° Southeast 91 105 3,100 -240 Descending Miami Center
11:47AM 26.4264 -80.9467 109° East 91 105 3,100 -60 Level Miami Center
11:48AM 26.4186 -80.9183 107° East 91 105 3,000 -60 Descending Miami Center
11:49AM 26.4092 -80.8903 111° Southeast 91 105 3,000  Level Miami Center
11:50AM 26.3953 -80.8597 117° Southeast 97 112 3,000  Level Miami Center
11:51AM 26.3939 -80.8319 93° East 91 105 3,000  Level Miami Center
11:52AM 26.3842 -80.8061 113° Southeast 91 105 3,000  Level Miami Center
11:53AM 26.3767 -80.7781 107° East 91 105 3,000  Level Miami Center
11:54AM 26.3669 -80.7475 110° East 91 105 3,000  Level Miami Center
11:55AM 26.3553 -80.7217 117° Southeast 91 105 3,000  Level Miami Center
11:56AM 26.3475 -80.6936 107° East 91 105 3,000  Level Miami Center
11:57AM 26.3378 -80.6678 113° Southeast 91 105 3,100 60 Climbing Miami Center
11:58AM 26.3303 -80.6375 105° East 91 105 3,200 -60 Climbing Miami Center
11:59AM 26.3186 -80.6022 110° East 95 109 3,000 -120 Descending Miami Center
12:00PM 26.3111 -80.5719 105° East 100 115 3,000  Level Miami Center
12:01PM 26.2992 -80.5436 115° Southeast 95 109 3,000  Level Miami Center
12:02PM 26.2917 -80.5133 105° East 96 110 3,000 -60 Level Miami Center
12:03PM 26.2839 -80.4875 109° East 97 112 2,900 -60 Descending Miami Center
12:04PM 26.2761 -80.4619 109° East 97 112 2,900  Level Miami Center
12:05PM 26.2667 -80.4269 107° East 99 114 2,900  Level Miami Center
12:06PM 26.2589 -80.4011 109° East 98 113 2,900 -60 Level Miami Center
12:07PM 26.2492 -80.3708 110° East 98 113 2,800 -300 Descending Miami Center
12:08PM 26.2394 -80.3333 106° East 110 127 2,300 -540 Descending Miami Center
12:09PM 26.2361 -80.3031 97° East 102 117 1,800 -540 Descending Miami Center
12:10PM 26.2306 -80.2706 101° East 105 121 1,300 -480 Descending Miami Center
12:11PM 26.2231 -80.2381 104° East 114 131 900 -300 Descending Miami Center
12:12PM 26.2175 -80.2100 102° East 89 102 700 -240 Descending Miami Center
12:13PM 26.2053 -80.1867 120° Southeast 75 86 500 -240 Descending Miami Center
12:15PM 26.1973 -80.1707 114° Southeast  Level Estimated
12:22PM 26.1973 -80.1707 114° Southeast  Level Estimated